Time;durP1;ratioP1;P1;durP2;ratioP2;P2;SDS_P1;SDS_P2;PMS_P1;PMS_P2;Temp;Humidity;BMP_temperature;BMP_pressure;BME280_temperature;BME280_humidity;BME280_pressure;Samples;Min_cycle;Max_cycle;Signal;HPM_P1;HPM_P2
2021/04/27 00:00:19;;;;;;;4.65;2.50;;;;;;;8.83;85.02;101082.81;1709023;84;21704;-56
2021/04/27 00:02:47;;;;;;;3.80;2.22;;;;;;;8.84;84.89;101096.60;1682850;85;21123;-56
2021/04/27 00:05:16;;;;;;;4.35;2.55;;;;;;;8.88;84.62;101110.80;1695858;84;21152;-56
2021/04/27 00:07:45;;;;;;;3.45;2.70;;;;;;;8.91;84.48;101109.83;1666301;86;21079;-56
2021/04/27 00:10:14;;;;;;;5.20;2.65;;;;;;;8.93;84.58;101108.00;1680982;85;21496;-55
2021/04/27 00:12:43;;;;;;;4.90;2.60;;;;;;;8.93;84.75;101095.52;1695897;84;21438;-56
2021/04/27 00:15:14;;;;;;;5.58;2.70;;;;;;;8.93;84.93;101092.84;1695759;84;21129;-55
2021/04/27 00:17:42;;;;;;;4.33;2.62;;;;;;;8.95;85.01;101100.81;1680975;85;21143;-56
2021/04/27 00:20:10;;;;;;;2.80;2.50;;;;;;;8.95;84.73;101096.37;1695796;84;21125;-56
2021/04/27 00:22:38;;;;;;;5.80;2.90;;;;;;;8.97;84.56;101104.37;1695908;84;21054;-56
2021/04/27 00:25:07;;;;;;;3.10;2.10;;;;;;;8.98;84.35;101103.45;1666228;86;21349;-56
2021/04/27 00:27:35;;;;;;;5.17;2.70;;;;;;;9.00;84.47;101102.95;1680931;85;21123;-56
2021/04/27 00:30:06;;;;;;;3.47;2.30;;;;;;;9.00;84.57;101096.27;1700720;84;21085;-56
2021/04/27 00:32:34;;;;;;;5.87;3.00;;;;;;;9.02;84.27;101101.98;1679029;85;21486;-56
2021/04/27 00:35:03;;;;;;;3.35;2.30;;;;;;;9.04;83.99;101095.28;1724936;83;21557;-55
2021/04/27 00:37:31;;;;;;;2.60;2.05;;;;;;;9.05;83.73;101093.02;1707726;84;21391;-56
2021/04/27 00:39:58;;;;;;;4.55;2.58;;;;;;;9.07;83.66;101089.85;1709030;84;21228;-56
2021/04/27 00:42:35;;;;;;;6.37;2.67;;;;;;;9.08;83.38;101088.94;1678971;85;21150;-57
2021/04/27 00:45:07;;;;;;;7.05;2.60;;;;;;;9.09;83.19;101085.34;1724827;83;21518;-56
2021/04/27 00:47:35;;;;;;;3.45;2.50;;;;;;;9.10;83.31;101085.77;1708643;84;21481;-55
2021/04/27 00:50:05;;;;;;;5.62;2.37;;;;;;;9.12;83.31;101087.94;1724902;83;22425;-56
2021/04/27 00:52:33;;;;;;;5.65;2.47;;;;;;;9.12;83.40;101079.92;1707691;84;21083;-56
2021/04/27 00:55:04;;;;;;;5.03;2.55;;;;;;;9.14;83.36;101078.08;1709050;84;21183;-56
2021/04/27 00:57:32;;;;;;;4.30;2.98;;;;;;;9.14;83.19;101078.08;1704765;83;21158;-56
2021/04/27 01:00:00;;;;;;;4.55;2.67;;;;;;;9.14;82.21;101079.42;1724275;83;21122;-57
2021/04/27 01:02:28;;;;;;;5.28;2.87;;;;;;;9.11;80.16;101068.80;1743416;82;21760;-57
2021/04/27 01:04:56;;;;;;;4.58;3.00;;;;;;;9.13;78.32;101073.65;1743326;82;21109;-55
2021/04/27 01:07:28;;;;;;;3.27;2.40;;;;;;;9.13;76.23;101070.97;1743354;82;21065;-57
2021/04/27 01:10:00;;;;;;;6.42;3.65;;;;;;;9.15;75.77;101087.00;1738675;82;21489;-55
2021/04/27 01:12:35;;;;;;;7.25;3.00;;;;;;;9.12;74.80;101073.23;1704252;83;21216;-55
2021/04/27 01:15:16;;;;;;;5.55;3.37;;;;;;;9.06;74.00;101089.88;1743482;82;21212;-57
2021/04/27 01:17:44;;;;;;;7.85;3.52;;;;;;;8.99;73.46;101095.84;1743366;82;21102;-56
2021/04/27 01:20:35;;;;;;;5.40;3.22;;;;;;;8.89;73.97;101096.04;1743374;82;21126;-57
2021/04/27 01:23:13;;;;;;;6.40;3.25;;;;;;;8.79;75.27;101094.50;1743358;82;21161;-57
2021/04/27 01:25:52;;;;;;;4.47;3.33;;;;;;;8.68;76.93;101100.52;1743400;82;21124;-57
2021/04/27 01:28:20;;;;;;;5.15;3.12;;;;;;;8.59;78.06;101090.90;1743345;82;21444;-57
2021/04/27 01:30:48;;;;;;;5.67;3.65;;;;;;;8.50;78.00;101086.62;1733042;82;21633;-57
2021/04/27 01:33:25;;;;;;;6.83;3.58;;;;;;;8.43;80.01;101080.52;1725547;83;21086;-57
2021/04/27 01:35:56;;;;;;;8.13;3.50;;;;;;;8.37;81.47;101083.30;1725682;83;21074;-57
2021/04/27 01:38:24;;;;;;;7.28;3.67;;;;;;;8.31;82.22;101074.08;1725722;83;21074;-57
2021/04/27 01:40:54;;;;;;;6.45;3.30;;;;;;;8.28;82.65;101071.00;1725658;83;21382;-57
2021/04/27 01:43:22;;;;;;;6.90;3.52;;;;;;;8.26;81.04;101063.95;1676448;83;21154;-57
2021/04/27 01:46:01;;;;;;;5.10;3.22;;;;;;;8.22;79.80;101062.26;1730214;83;21157;-57
2021/04/27 01:48:30;;;;;;;7.40;3.58;;;;;;;8.17;78.90;101054.33;1730238;83;21186;-57
2021/04/27 01:50:59;;;;;;;9.23;3.35;;;;;;;8.17;79.45;101053.00;1730322;82;21645;-57
2021/04/27 01:53:45;;;;;;;3.98;3.00;;;;;;;8.19;79.34;101049.84;1730324;83;21694;-57
2021/04/27 01:56:13;;;;;;;4.50;3.15;;;;;;;8.23;78.71;101047.52;1729386;83;21082;-57
2021/04/27 01:58:40;;;;;;;4.83;3.67;;;;;;;8.26;78.80;101040.77;1698051;84;21157;-57
2021/04/27 02:01:08;;;;;;;6.62;3.92;;;;;;;8.27;79.09;101042.53;1698502;83;21173;-57
2021/04/27 02:03:44;;;;;;;6.72;3.85;;;;;;;8.27;79.15;101047.02;1698561;84;21075;-57
2021/04/27 02:06:29;;;;;;;7.00;3.98;;;;;;;8.24;79.08;101051.95;1614468;88;21266;-57
2021/04/27 02:09:08;;;;;;;10.45;4.22;;;;;;;8.23;79.14;101059.54;1671902;84;21546;-57
2021/04/27 02:11:40;;;;;;;6.83;4.00;;;;;;;8.24;79.08;101052.42;1698117;84;21082;-57
2021/04/27 02:14:09;;;;;;;5.40;3.33;;;;;;;8.24;78.95;101055.95;1698642;84;21704;-57
2021/04/27 02:16:46;;;;;;;6.35;3.90;;;;;;;8.22;79.36;101037.75;1698564;84;21190;-57
2021/04/27 02:19:14;;;;;;;7.00;3.83;;;;;;;8.22;79.60;101035.55;1698526;84;21438;-56
2021/04/27 02:21:45;;;;;;;7.55;3.80;;;;;;;8.21;79.50;101033.31;1697779;84;21100;-56
2021/04/27 02:24:27;;;;;;;6.35;3.25;;;;;;;8.17;79.32;101027.63;1698247;84;21111;-57
2021/04/27 02:26:56;;;;;;;5.30;3.47;;;;;;;8.13;79.22;101025.93;1698399;84;21122;-56
2021/04/27 02:29:25;;;;;;;5.72;3.70;;;;;;;8.07;78.93;101020.69;1698198;84;21213;-56
2021/04/27 02:31:56;;;;;;;9.20;4.45;;;;;;;8.02;79.07;101021.67;1678046;84;21433;-56
2021/04/27 02:34:25;;;;;;;6.17;3.50;;;;;;;7.99;79.59;101008.38;1695275;84;21101;-56
2021/04/27 02:36:53;;;;;;;4.62;3.37;;;;;;;7.96;80.12;101011.12;1665682;86;21206;-56
2021/04/27 02:39:23;;;;;;;6.87;4.17;;;;;;;7.92;80.39;101015.20;1694535;84;21168;-56
2021/04/27 02:41:51;;;;;;;6.67;3.90;;;;;;;7.88;80.55;101003.26;1665586;86;21151;-56
2021/04/27 02:44:32;;;;;;;5.22;3.08;;;;;;;7.87;80.42;101002.83;1671544;84;21491;-55
2021/04/27 02:47:00;;;;;;;5.03;3.58;;;;;;;7.86;80.60;101009.56;1647150;87;21737;-55
2021/04/27 02:49:28;;;;;;;7.40;3.80;;;;;;;7.84;80.80;101007.34;1705564;84;21370;-56
2021/04/27 02:51:58;;;;;;;4.60;3.42;;;;;;;7.80;80.99;101003.88;1705036;84;21161;-56
2021/04/27 02:54:26;;;;;;;6.90;3.72;;;;;;;7.76;81.28;100998.17;1646977;87;21150;-55
2021/04/27 02:56:55;;;;;;;6.85;4.20;;;;;;;7.76;81.44;101001.28;1715699;82;21355;-56
2021/04/27 02:59:24;;;;;;;6.35;3.55;;;;;;;7.74;81.87;100993.33;1737603;82;21114;-56
2021/04/27 03:01:52;;;;;;;7.05;3.85;;;;;;;7.74;82.26;100988.84;1738252;82;21144;-56
2021/04/27 03:04:20;;;;;;;6.58;3.60;;;;;;;7.72;82.35;100985.33;1738202;82;21117;-56
2021/04/27 03:06:49;;;;;;;7.67;3.85;;;;;;;7.70;82.38;100991.16;1716474;82;21137;-56
2021/04/27 03:09:19;;;;;;;8.35;3.90;;;;;;;7.70;82.79;101000.94;1704295;84;21217;-57
2021/04/27 03:11:48;;;;;;;7.10;3.98;;;;;;;7.66;83.43;100989.47;1704602;84;21116;-56
2021/04/27 03:14:16;;;;;;;8.58;4.42;;;;;;;7.63;83.67;100984.19;1704683;84;21084;-55
2021/04/27 03:16:44;;;;;;;7.92;4.33;;;;;;;7.61;84.06;100983.31;1704656;84;21087;-56
2021/04/27 03:19:13;;;;;;;6.40;4.10;;;;;;;7.59;84.39;100975.79;1704759;84;21606;-56
2021/04/27 03:21:43;;;;;;;7.80;4.12;;;;;;;7.56;84.70;100969.19;1703817;84;21566;-56
2021/04/27 03:24:11;;;;;;;7.22;4.50;;;;;;;7.53;85.35;100973.25;1704657;84;21167;-56
2021/04/27 03:26:39;;;;;;;6.83;3.95;;;;;;;7.51;85.88;100969.26;1704518;84;21195;-56
2021/04/27 03:29:25;;;;;;;4.83;3.60;;;;;;;7.47;86.05;100962.23;1704646;84;21143;-55
2021/04/27 03:31:54;;;;;;;5.17;3.60;;;;;;;7.45;86.18;100959.61;1699848;84;21132;-56
2021/04/27 03:34:22;;;;;;;7.47;4.10;;;;;;;7.45;86.41;100962.27;1699639;84;21383;-57
2021/04/27 03:36:50;;;;;;;7.33;4.33;;;;;;;7.45;86.39;100972.95;1699529;84;21139;-55
2021/04/27 03:39:18;;;;;;;7.40;3.80;;;;;;;7.47;86.87;100968.03;1699573;84;21179;-56
2021/04/27 03:41:46;;;;;;;8.55;3.35;;;;;;;7.47;87.20;100945.36;1699643;84;21072;-55
2021/04/27 03:44:14;;;;;;;6.28;3.45;;;;;;;7.47;88.04;100951.55;1699578;84;21064;-56
2021/04/27 03:46:43;;;;;;;5.80;3.67;;;;;;;7.47;88.53;100957.36;1699591;84;21381;-55
2021/04/27 03:49:11;;;;;;;5.62;3.52;;;;;;;7.45;89.11;100982.28;1699590;84;21155;-56
2021/04/27 03:51:39;;;;;;;7.70;3.27;;;;;;;7.45;89.29;100980.95;1699666;84;21180;-55
2021/04/27 03:54:09;;;;;;;6.83;3.67;;;;;;;7.50;89.74;100990.65;1699250;84;21210;-56
2021/04/27 03:56:38;;;;;;;7.62;3.60;;;;;;;7.54;90.09;100988.34;1693470;84;21188;-56
2021/04/27 03:59:07;;;;;;;7.10;3.70;;;;;;;7.58;90.46;100978.03;1668567;86;21354;-57
2021/04/27 04:01:35;;;;;;;4.70;3.40;;;;;;;7.60;90.28;100984.22;1668469;86;21228;-56
2021/04/27 04:04:04;;;;;;;4.35;2.85;;;;;;;7.65;90.00;100975.70;1668534;86;21172;-56
2021/04/27 04:06:33;;;;;;;8.20;3.52;;;;;;;7.69;89.94;100975.16;1668435;86;21135;-56
2021/04/27 04:09:06;;;;;;;5.58;3.05;;;;;;;7.72;89.44;100974.66;1668504;85;21132;-57
2021/04/27 04:11:35;;;;;;;;;;;;;;;7.76;88.53;100978.59;1670154;86;21403;-56
2021/04/27 04:14:04;;;;;;;4.60;2.80;;;;;;;7.79;88.19;100965.19;1643501;86;20228;-57
2021/04/27 04:16:35;;;;;;;5.25;3.27;;;;;;;7.81;88.58;100971.38;1666591;86;21141;-55
2021/04/27 04:19:03;;;;;;;4.30;3.15;;;;;;;7.86;87.75;100988.20;1668554;86;21152;-56
2021/04/27 04:21:31;;;;;;;5.62;3.33;;;;;;;7.86;86.92;100997.55;1643552;86;21210;-56
2021/04/27 04:24:00;;;;;;;5.22;3.40;;;;;;;7.88;86.40;100986.37;1667466;86;21225;-56
2021/04/27 04:26:28;;;;;;;5.22;3.17;;;;;;;7.91;86.19;100990.31;1668439;86;21191;-56
2021/04/27 04:29:01;;;;;;;3.92;2.75;;;;;;;7.93;85.57;100995.61;1664783;86;21175;-56
2021/04/27 04:31:29;;;;;;;4.42;3.27;;;;;;;7.94;85.32;100988.91;1671671;85;21195;-55
2021/04/27 04:34:15;;;;;;;5.92;3.27;;;;;;;7.96;85.11;100999.58;1695064;84;21087;-56
2021/04/27 04:37:01;;;;;;;5.83;3.30;;;;;;;7.99;84.72;100999.04;1695076;84;21419;-56
2021/04/27 04:39:41;;;;;;;5.03;3.33;;;;;;;8.02;84.83;100997.64;1625250;85;21202;-55
2021/04/27 04:42:27;;;;;;;3.55;2.55;;;;;;;8.03;85.21;100998.06;1695145;84;21105;-56
2021/04/27 04:45:14;;;;;;;4.33;3.00;;;;;;;8.05;85.19;101001.16;1695048;84;21084;-56
2021/04/27 04:47:44;;;;;;;5.15;3.25;;;;;;;8.06;85.47;100996.23;1675385;84;21101;-57
2021/04/27 04:50:30;;;;;;;6.37;3.35;;;;;;;8.07;85.54;100991.31;1695111;84;22162;-55
2021/04/27 04:53:16;;;;;;;4.60;3.10;;;;;;;8.08;85.66;100986.43;1694992;84;21092;-57
2021/04/27 04:55:46;;;;;;;4.53;3.08;;;;;;;8.08;85.62;100977.08;1694703;84;21183;-56
2021/04/27 04:58:22;;;;;;;4.97;3.05;;;;;;;8.09;85.70;100976.17;1724383;83;21157;-57
2021/04/27 05:00:54;;;;;;;3.83;2.50;;;;;;;8.11;86.08;100981.88;1727301;82;21074;-56
2021/04/27 05:03:39;;;;;;;7.78;1.90;;;;;;;8.18;87.41;100981.30;1727470;83;21350;-56
2021/04/27 05:06:25;;;;;;;6.10;1.67;;;;;;;8.30;89.29;100977.48;1727319;83;21079;-56
2021/04/27 05:09:13;;;;;;;7.72;1.80;;;;;;;8.46;90.95;100976.68;1727473;83;21130;-57
2021/04/27 05:11:42;;;;;;;6.35;1.50;;;;;;;8.60;92.21;100965.27;1726514;82;21142;-56
2021/04/27 05:14:21;;;;;;;10.82;1.57;;;;;;;8.73;92.96;100963.17;1647899;87;21156;-57
2021/04/27 05:16:49;;;;;;;4.42;1.60;;;;;;;8.85;93.48;100960.66;1727612;83;21364;-56
2021/04/27 05:19:17;;;;;;;5.42;1.55;;;;;;;8.94;93.70;100960.89;1727364;83;21368;-57
2021/04/27 05:21:45;;;;;;;3.12;1.60;;;;;;;9.00;93.87;100960.73;1727474;83;21139;-56
2021/04/27 05:24:13;;;;;;;5.17;1.60;;;;;;;9.07;94.16;100965.47;1727348;83;21126;-56
2021/04/27 05:26:41;;;;;;;5.70;1.70;;;;;;;9.12;94.23;100962.22;1727426;82;21142;-57
2021/04/27 05:29:09;;;;;;;3.85;1.57;;;;;;;9.15;94.71;100956.78;1727375;83;21392;-56
2021/04/27 05:31:38;;;;;;;3.80;1.77;;;;;;;9.13;89.56;100949.26;1728615;82;21095;-57
2021/04/27 05:34:06;;;;;;;8.83;2.00;;;;;;;9.13;87.81;100957.77;1696497;84;21090;-56
2021/04/27 05:36:34;;;;;;;8.03;2.10;;;;;;;9.15;88.17;100967.96;1730779;83;21066;-57
2021/04/27 05:39:03;;;;;;;5.72;1.67;;;;;;;9.09;89.62;100955.61;1712470;83;21147;-56
2021/04/27 05:41:33;;;;;;;6.85;1.62;;;;;;;9.10;90.31;100952.02;1730796;82;21205;-58
2021/04/27 05:44:01;;;;;;;5.10;1.75;;;;;;;9.11;91.24;100941.73;1730685;82;21141;-56
2021/04/27 05:46:28;;;;;;;7.70;2.15;;;;;;;9.13;92.35;100939.03;1728964;83;21185;-56
2021/04/27 05:48:56;;;;;;;6.37;2.10;;;;;;;9.09;92.79;100923.52;1719769;83;21163;-56
2021/04/27 05:51:24;;;;;;;5.58;1.92;;;;;;;9.09;93.45;100924.85;1702285;83;21121;-56
2021/04/27 05:53:52;;;;;;;6.53;1.90;;;;;;;9.07;94.20;100925.35;1730802;82;21203;-56
2021/04/27 05:56:20;;;;;;;8.10;1.55;;;;;;;9.05;94.77;100919.61;1728573;82;21174;-57
2021/04/27 05:58:48;;;;;;;7.55;2.17;;;;;;;9.04;94.42;100914.74;1701627;84;21130;-56
2021/04/27 06:01:17;;;;;;;7.97;2.20;;;;;;;9.02;94.65;100920.12;1701512;84;21221;-55
2021/04/27 06:03:44;;;;;;;7.28;2.40;;;;;;;9.05;95.19;100920.51;1701615;83;21185;-56
2021/04/27 06:06:12;;;;;;;9.15;2.42;;;;;;;9.05;95.73;100912.93;1701600;84;22460;-56
2021/04/27 06:08:41;;;;;;;8.95;2.10;;;;;;;9.04;96.00;100912.06;1701622;83;21146;-56
2021/04/27 06:11:09;;;;;;;18.60;2.40;;;;;;;9.07;96.11;100918.67;1701689;84;21157;-56
2021/04/27 06:13:38;;;;;;;6.53;1.90;;;;;;;9.09;96.63;100922.17;1701652;84;21070;-56
2021/04/27 06:16:06;;;;;;;8.85;2.50;;;;;;;9.08;96.56;100909.72;1701712;84;21083;-56
2021/04/27 06:18:33;;;;;;;4.17;1.82;;;;;;;9.08;96.61;100903.04;1701627;84;21336;-56
2021/04/27 06:21:02;;;;;;;8.53;1.80;;;;;;;9.08;96.46;100904.84;1719003;82;21131;-56
2021/04/27 06:23:29;;;;;;;5.33;1.65;;;;;;;9.07;96.70;100909.31;1730358;82;21158;-55
2021/04/27 06:25:57;;;;;;;5.97;1.62;;;;;;;9.08;96.66;100917.75;1730613;82;21047;-56
2021/04/27 06:28:24;;;;;;;5.28;1.80;;;;;;;9.08;96.93;100912.88;1729410;82;21214;-56
2021/04/27 06:30:52;;;;;;;5.60;2.22;;;;;;;9.06;96.99;100907.55;1714140;82;21347;-57
2021/04/27 06:33:20;;;;;;;9.70;2.15;;;;;;;9.05;97.30;100903.12;1699494;83;21167;-57
2021/04/27 06:35:48;;;;;;;4.70;1.82;;;;;;;9.04;97.32;100897.36;1708860;83;21089;-57
2021/04/27 06:38:19;;;;;;;8.88;2.10;;;;;;;9.04;97.57;100898.69;1730316;83;21051;-57
2021/04/27 06:40:49;;;;;;;6.15;1.90;;;;;;;9.04;97.80;100893.34;1730497;83;21463;-57
2021/04/27 06:43:16;;;;;;;6.87;1.70;;;;;;;9.03;97.96;100891.59;1730403;83;21200;-56
2021/04/27 06:45:44;;;;;;;6.40;2.30;;;;;;;9.03;97.01;100890.25;1730336;83;21169;-57
2021/04/27 06:48:12;;;;;;;5.78;1.85;;;;;;;9.03;96.99;100882.23;1730469;83;21130;-58
2021/04/27 06:50:42;;;;;;;6.80;2.47;;;;;;;9.06;97.38;100888.83;1730287;83;21150;-57
2021/04/27 06:53:10;;;;;;;6.55;1.82;;;;;;;9.04;97.12;100882.64;1730449;83;21606;-56
2021/04/27 06:55:37;;;;;;;5.78;2.02;;;;;;;9.05;96.50;100871.47;1730303;83;21263;-55
2021/04/27 06:58:10;;;;;;;4.37;2.10;;;;;;;9.06;95.31;100864.76;1704238;83;21135;-56
2021/04/27 07:00:39;;;;;;;4.15;2.12;;;;;;;9.08;91.62;100861.58;1698053;84;21069;-55
2021/04/27 07:03:07;;;;;;;10.93;2.40;;;;;;;9.10;89.53;100861.08;1698152;84;21062;-56
2021/04/27 07:05:36;;;;;;;7.87;2.37;;;;;;;9.13;88.11;100864.14;1698119;84;21090;-57
2021/04/27 07:08:05;;;;;;;7.83;2.70;;;;;;;9.13;87.46;100865.00;1698073;84;21215;-56
2021/04/27 07:10:33;;;;;;;6.67;2.30;;;;;;;9.12;87.42;100867.73;1698088;84;21136;-56
2021/04/27 07:13:00;;;;;;;6.08;2.83;;;;;;;9.10;88.04;100840.16;1698116;84;21105;-55
2021/04/27 07:15:27;;;;;;;7.58;1.85;;;;;;;9.10;89.51;100832.98;1698218;84;21180;-55
2021/04/27 07:17:55;;;;;;;5.95;1.90;;;;;;;9.12;91.32;100823.13;1698176;84;21200;-55
2021/04/27 07:20:23;;;;;;;6.42;2.50;;;;;;;9.14;92.63;100823.95;1698200;84;21451;-55
2021/04/27 07:22:53;;;;;;;8.00;2.15;;;;;;;9.21;93.61;100823.80;1697608;84;21165;-56
2021/04/27 07:25:21;;;;;;;9.33;2.52;;;;;;;9.28;94.77;100817.35;1698143;84;21125;-56
2021/04/27 07:27:48;;;;;;;12.25;2.08;;;;;;;9.35;95.22;100812.70;1717549;83;21122;-54
2021/04/27 07:30:20;;;;;;;6.03;1.70;;;;;;;9.38;95.92;100821.50;1728903;83;21078;-54
2021/04/27 07:32:48;;;;;;;4.75;1.95;;;;;;;9.44;96.09;100818.67;1726901;82;21142;-54
2021/04/27 07:35:16;;;;;;;7.42;2.22;;;;;;;9.50;96.37;100807.36;1725866;83;21086;-55
2021/04/27 07:37:45;;;;;;;10.72;2.52;;;;;;;9.51;96.22;100822.05;1725968;82;21063;-54
2021/04/27 07:40:13;;;;;;;6.95;1.95;;;;;;;9.51;95.96;100826.52;1725636;83;21150;-54
2021/04/27 07:42:42;;;;;;;11.10;1.90;;;;;;;9.51;95.49;100837.22;1725800;83;21558;-54
2021/04/27 07:45:13;;;;;;;9.00;2.35;;;;;;;9.49;95.08;100844.41;1725649;82;21504;-55
2021/04/27 07:47:40;;;;;;;6.12;2.40;;;;;;;9.48;94.61;100848.02;1725758;83;21201;-54
2021/04/27 07:50:11;;;;;;;6.42;2.05;;;;;;;9.46;94.44;100834.66;1725106;83;21173;-55
2021/04/27 07:52:39;;;;;;;7.45;2.27;;;;;;;9.42;94.25;100827.20;1725890;83;21172;-54
2021/04/27 07:55:08;;;;;;;7.83;2.20;;;;;;;9.41;94.47;100808.06;1725843;83;21079;-54
2021/04/27 07:57:36;;;;;;;7.55;2.10;;;;;;;9.41;94.70;100797.80;1726468;83;21340;-54
2021/04/27 08:00:06;;;;;;;7.12;2.05;;;;;;;9.40;95.00;100788.91;1725687;83;21087;-54
2021/04/27 08:02:36;;;;;;;7.58;2.30;;;;;;;9.39;95.34;100800.98;1725309;82;21066;-55
2021/04/27 08:05:05;;;;;;;9.98;2.60;;;;;;;9.36;95.60;100789.90;1725745;83;21075;-55
2021/04/27 08:07:33;;;;;;;6.00;2.25;;;;;;;9.32;96.18;100776.20;1727221;83;21118;-54
2021/04/27 08:10:02;;;;;;;8.50;2.58;;;;;;;9.33;96.39;100785.98;1725775;83;21306;-55
2021/04/27 08:12:30;;;;;;;7.72;2.10;;;;;;;9.31;96.82;100777.13;1722027;83;21209;-55
2021/04/27 08:14:58;;;;;;;13.60;2.80;;;;;;;9.32;97.31;100770.84;1723021;83;21509;-55
2021/04/27 08:17:25;;;;;;;8.05;2.50;;;;;;;9.32;97.47;100760.14;1718119;83;21487;-55
2021/04/27 08:19:54;;;;;;;12.70;2.95;;;;;;;9.38;97.74;100757.28;1704076;84;21137;-54
2021/04/27 08:22:24;;;;;;;10.05;2.25;;;;;;;9.43;97.90;100753.13;1726088;83;21331;-54
2021/04/27 08:24:54;;;;;;;6.97;2.50;;;;;;;9.48;97.97;100748.99;1648938;84;21138;-54
2021/04/27 08:27:24;;;;;;;9.65;2.80;;;;;;;9.49;97.94;100744.05;1701953;84;21094;-55
2021/04/27 08:29:52;;;;;;;11.15;2.62;;;;;;;9.52;98.08;100748.86;1695567;84;21566;-55
2021/04/27 08:32:21;;;;;;;10.30;2.72;;;;;;;9.54;98.18;100740.77;1695530;84;21142;-54
2021/04/27 08:34:49;;;;;;;9.43;3.17;;;;;;;9.56;98.47;100747.84;1695638;84;22330;-55
2021/04/27 08:37:17;;;;;;;10.60;2.95;;;;;;;9.58;98.57;100737.06;1695784;84;21114;-54
2021/04/27 08:39:44;;;;;;;14.63;3.15;;;;;;;9.58;99.00;100738.41;1695823;84;21082;-55
2021/04/27 08:42:12;;;;;;;9.05;3.70;;;;;;;9.58;99.04;100729.03;1695815;84;21118;-55
2021/04/27 08:44:40;;;;;;;7.87;2.80;;;;;;;9.58;99.52;100729.03;1695762;84;21184;-54
2021/04/27 08:47:09;;;;;;;12.33;3.15;;;;;;;9.58;99.75;100745.09;1695827;84;21584;-54
2021/04/27 08:49:37;;;;;;;9.55;3.50;;;;;;;9.59;100.00;100745.51;1695775;84;21792;-54
2021/04/27 08:52:05;;;;;;;15.10;3.70;;;;;;;9.59;100.00;100726.77;1695858;84;21162;-54
2021/04/27 08:54:35;;;;;;;10.25;3.65;;;;;;;9.61;100.00;100728.94;1695710;84;21642;-55
2021/04/27 08:57:05;;;;;;;11.22;3.65;;;;;;;9.62;100.00;100726.70;1698231;84;21083;-55
2021/04/27 08:59:32;;;;;;;9.70;3.67;;;;;;;9.64;100.00;100725.30;1704853;84;21328;-55
2021/04/27 09:02:00;;;;;;;13.95;3.75;;;;;;;9.61;100.00;100727.59;1727313;83;21184;-55
2021/04/27 09:04:48;;;;;;;14.30;3.37;;;;;;;9.63;100.00;100723.10;1727406;83;21098;-55
2021/04/27 09:07:18;;;;;;;7.83;3.90;;;;;;;9.63;100.00;100713.73;1727313;83;21111;-55
2021/04/27 09:09:49;;;;;;;10.65;3.58;;;;;;;9.65;100.00;100713.22;1727451;83;21059;-55
2021/04/27 09:12:27;;;;;;;15.03;4.10;;;;;;;9.68;100.00;100700.17;1727352;83;21384;-55
2021/04/27 09:14:56;;;;;;;9.70;3.83;;;;;;;9.72;100.00;100696.47;1727318;83;21066;-55
2021/04/27 09:17:27;;;;;;;16.20;3.95;;;;;;;9.77;100.00;100693.66;1727235;83;21099;-56
2021/04/27 09:19:58;;;;;;;16.23;3.90;;;;;;;9.78;100.00;100688.70;1727287;83;21483;-55
2021/04/27 09:22:30;;;;;;;13.40;3.80;;;;;;;9.82;100.00;100687.67;1727257;83;21075;-55
2021/04/27 09:25:06;;;;;;;16.27;4.22;;;;;;;9.84;100.00;100680.50;1727051;82;21363;-55
2021/04/27 09:27:38;;;;;;;12.23;3.77;;;;;;;9.85;100.00;100683.59;1703502;84;21228;-56
2021/04/27 09:30:19;;;;;;;12.10;4.10;;;;;;;9.86;100.00;100680.84;1726743;83;21619;-55
2021/04/27 09:33:05;;;;;;;14.33;3.72;;;;;;;9.84;100.00;100673.80;1704570;83;21085;-55
2021/04/27 09:35:41;;;;;;;18.17;4.08;;;;;;;9.81;100.00;100671.20;1727377;83;21134;-56
2021/04/27 09:38:21;;;;;;;9.53;3.15;;;;;;;9.80;100.00;100652.05;1704758;84;22277;-56
2021/04/27 09:41:04;;;;;;;17.67;4.03;;;;;;;9.82;100.00;100643.49;1727353;82;21169;-54
2021/04/27 09:43:39;;;;;;;11.65;3.30;;;;;;;9.87;100.00;100642.90;1705027;84;21176;-55
2021/04/27 09:46:10;;;;;;;11.88;3.47;;;;;;;9.87;100.00;100642.90;1726100;82;21086;-55
2021/04/27 09:48:45;;;;;;;13.08;3.37;;;;;;;9.89;100.00;100646.40;1704912;84;21049;-56
2021/04/27 09:51:20;;;;;;;12.30;2.70;;;;;;;9.90;100.00;100640.11;1723146;83;22345;-55
2021/04/27 09:53:55;;;;;;;13.72;3.05;;;;;;;9.90;100.00;100636.09;1701655;84;21196;-54
2021/04/27 09:56:54;;;;;;;12.05;3.05;;;;;;;9.88;100.00;100631.27;1724822;82;21063;-55
2021/04/27 09:59:27;;;;;;;11.83;2.58;;;;;;;9.88;100.00;100633.45;1720607;83;21610;-55
2021/04/27 10:01:56;;;;;;;11.48;2.83;;;;;;;9.88;100.00;100628.58;1702664;84;21145;-55
2021/04/27 10:04:28;;;;;;;18.75;2.65;;;;;;;9.88;100.00;100636.61;1703541;84;21377;-55
2021/04/27 10:07:00;;;;;;;5.92;2.55;;;;;;;9.92;100.00;100619.51;1701507;84;21565;-56
2021/04/27 10:09:28;;;;;;;6.97;2.80;;;;;;;9.94;100.00;100621.66;1696514;84;21138;-55
2021/04/27 10:11:57;;;;;;;8.15;3.00;;;;;;;9.95;100.00;100619.87;1711742;83;21134;-55
2021/04/27 10:14:25;;;;;;;7.67;2.83;;;;;;;9.94;100.00;100623.00;1694852;84;21472;-55
2021/04/27 10:16:52;;;;;;;9.78;3.25;;;;;;;9.93;100.00;100623.05;1695648;84;21226;-55
2021/04/27 10:19:20;;;;;;;9.28;2.83;;;;;;;9.89;100.00;100619.62;1710531;83;21197;-55
2021/04/27 10:21:50;;;;;;;12.20;3.02;;;;;;;9.87;100.00;100625.02;1726667;83;21086;-55
2021/04/27 10:24:23;;;;;;;10.30;3.10;;;;;;;9.87;100.00;100621.48;1704738;84;21098;-55
2021/04/27 10:26:50;;;;;;;16.75;3.05;;;;;;;9.86;100.00;100624.61;1727323;82;21162;-53
2021/04/27 10:29:23;;;;;;;13.83;3.00;;;;;;;9.83;100.00;100610.44;1695242;84;22570;-52
2021/04/27 10:32:09;;;;;;;9.73;3.12;;;;;;;9.81;100.00;100617.64;1675843;85;21179;-51
2021/04/27 10:34:36;;;;;;;;;;;;;;;9.78;100.00;100613.29;1724554;82;21177;-52
2021/04/27 10:37:06;;;;;;;17.02;3.90;;;;;;;9.74;100.00;100619.20;1728184;82;21143;-52
2021/04/27 10:39:48;;;;;;;19.25;3.55;;;;;;;9.74;100.00;100619.69;1695767;84;21148;-51
2021/04/27 10:42:24;;;;;;;14.23;4.00;;;;;;;9.75;100.00;100610.24;1728371;82;21967;-53
2021/04/27 10:44:54;;;;;;;12.03;3.87;;;;;;;9.75;100.00;100608.91;1730775;82;21135;-51
2021/04/27 10:47:23;;;;;;;12.23;3.72;;;;;;;9.78;100.00;100608.38;1720983;83;21134;-51
2021/04/27 10:49:55;;;;;;;12.07;3.65;;;;;;;9.79;100.00;100602.10;1699871;84;21126;-52
2021/04/27 10:52:31;;;;;;;13.22;3.52;;;;;;;9.81;100.00;100597.56;1699982;84;21129;-51
2021/04/27 10:55:27;;;;;;;22.17;5.33;;;;;;;9.83;100.00;100594.36;1700032;84;21613;-52
2021/04/27 10:57:58;;;;;;;13.88;4.10;;;;;;;9.86;100.00;100580.90;1679889;84;21108;-51
2021/04/27 11:00:43;;;;;;;13.20;4.50;;;;;;;9.88;100.00;100575.02;1724041;83;21086;-51
2021/04/27 11:03:24;;;;;;;17.55;4.10;;;;;;;9.88;100.00;100572.34;1725803;82;21153;-52
2021/04/27 11:06:06;;;;;;;16.73;3.72;;;;;;;9.89;100.00;100571.42;1728465;82;21093;-52
2021/04/27 11:08:58;;;;;;;13.83;3.55;;;;;;;9.93;100.00;100579.75;1728787;82;21532;-52
2021/04/27 11:11:29;;;;;;;22.13;4.17;;;;;;;9.96;100.00;100578.30;1731003;82;21554;-51
2021/04/27 11:14:24;;;;;;;14.35;3.75;;;;;;;10.02;100.00;100579.41;1731050;82;21518;-52
2021/04/27 11:16:54;;;;;;;16.05;3.58;;;;;;;10.08;100.00;100577.47;1731085;82;21122;-51
2021/04/27 11:19:35;;;;;;;13.45;3.70;;;;;;;10.11;100.00;100576.02;1722642;82;21132;-51
2021/04/27 11:22:25;;;;;;;18.12;3.90;;;;;;;10.15;100.00;100573.63;1708006;82;21334;-51
2021/04/27 11:24:53;;;;;;;16.12;3.75;;;;;;;10.19;100.00;100569.90;1694270;84;21142;-51
2021/04/27 11:27:26;;;;;;;15.85;3.83;;;;;;;10.23;100.00;100570.19;1728234;83;21206;-51
2021/04/27 11:30:14;;;;;;;14.10;3.70;;;;;;;10.28;100.00;100564.67;1728203;82;21229;-51
2021/04/27 11:32:44;;;;;;;12.28;3.40;;;;;;;10.31;100.00;100564.55;1714751;82;21062;-51
2021/04/27 11:35:18;;;;;;;19.40;4.37;;;;;;;10.35;100.00;100566.67;1726474;82;21379;-52
2021/04/27 11:37:52;;;;;;;15.58;3.80;;;;;;;10.39;100.00;100565.62;1730869;82;21095;-53
2021/04/27 11:40:32;;;;;;;13.53;3.60;;;;;;;10.43;100.00;100564.59;1730817;82;21203;-53
2021/04/27 11:43:06;;;;;;;14.63;3.75;;;;;;;10.50;100.00;100567.93;1727916;82;21169;-51
2021/04/27 11:45:37;;;;;;;14.43;4.12;;;;;;;10.55;100.00;100558.79;1730948;82;21188;-51
2021/04/27 11:48:07;;;;;;;18.02;4.90;;;;;;;10.59;100.00;100560.41;1730383;82;21462;-51